createdAt,value
2022-12-18T00:02:25.917Z,1.20
2022-12-18T00:04:53.671Z,0.90
2022-12-18T00:07:21.125Z,1.17
2022-12-18T00:09:48.559Z,1.10
2022-12-18T00:14:48.210Z,0.90
2022-12-18T00:17:18.679Z,1.20
2022-12-18T00:19:45.958Z,1.07
2022-12-18T00:22:13.240Z,0.77
2022-12-18T00:24:40.524Z,1.27
2022-12-18T00:27:07.841Z,1.10
2022-12-18T00:29:35.802Z,1.20
2022-12-18T00:32:03.120Z,1.20
2022-12-18T00:34:30.521Z,0.90
2022-12-18T00:36:57.961Z,1.20
2022-12-18T00:39:25.241Z,1.10
2022-12-18T00:42:11.244Z,1.03
2022-12-18T00:44:38.562Z,1.00
2022-12-18T00:47:05.921Z,1.20
2022-12-18T00:49:33.261Z,1.03
2022-12-18T00:52:00.679Z,0.80
2022-12-18T00:54:28.119Z,0.80
2022-12-18T00:56:56.397Z,1.03
2022-12-18T00:59:23.802Z,0.93
2022-12-18T01:01:51.354Z,1.20
2022-12-18T01:04:18.760Z,0.90
2022-12-18T01:06:46.130Z,0.90
2022-12-18T01:09:14.638Z,1.13
2022-12-18T01:11:42.160Z,1.13
2022-12-18T01:14:09.560Z,1.10
2022-12-18T01:16:36.872Z,1.00
2022-12-18T01:19:04.402Z,0.77
2022-12-18T01:21:31.800Z,1.00
2022-12-18T01:23:59.712Z,1.10
2022-12-18T01:26:28.481Z,0.90
2022-12-18T01:28:56.521Z,1.10
2022-12-18T01:31:28.271Z,0.63
2022-12-18T01:33:56.124Z,0.77
2022-12-18T01:36:27.720Z,0.70
2022-12-18T01:38:55.121Z,0.90
2022-12-18T01:41:23.999Z,0.70
2022-12-18T01:43:53.480Z,0.60
2022-12-18T01:46:21.914Z,0.87
2022-12-18T01:48:50.569Z,1.17
2022-12-18T01:51:18.121Z,0.83
2022-12-18T01:53:46.199Z,1.17
2022-12-18T01:56:15.364Z,1.43
2022-12-18T01:58:42.761Z,0.90
2022-12-18T02:01:10.343Z,1.00
2022-12-18T02:03:38.307Z,0.73
2022-12-18T02:06:15.281Z,0.80
2022-12-18T02:08:54.881Z,0.97
2022-12-18T02:11:32.281Z,0.80
2022-12-18T02:14:06.124Z,0.80
2022-12-18T02:16:42.548Z,0.93
2022-12-18T02:19:30.440Z,0.70
2022-12-18T02:22:16.200Z,0.70
2022-12-18T02:24:46.365Z,0.80
2022-12-18T02:27:14.446Z,0.70
2022-12-18T02:29:58.587Z,0.63
2022-12-18T02:32:28.881Z,0.60
2022-12-18T02:34:57.922Z,0.80
2022-12-18T02:37:25.761Z,0.70
2022-12-18T02:39:55.160Z,0.80
2022-12-18T02:42:22.880Z,0.70
2022-12-18T02:44:51.322Z,0.50
2022-12-18T02:47:21.208Z,0.70
2022-12-18T02:49:54.121Z,0.70
2022-12-18T02:52:37.319Z,0.80
2022-12-18T02:55:13.640Z,0.60
2022-12-18T02:57:56.319Z,0.90
2022-12-18T03:00:25.121Z,0.90
2022-12-18T03:03:03.142Z,0.70
2022-12-18T03:05:30.758Z,0.90
2022-12-18T03:08:00.283Z,0.70
2022-12-18T03:10:29.801Z,0.60
2022-12-18T03:13:04.200Z,0.60
2022-12-18T03:15:37.241Z,0.60
2022-12-18T03:18:06.921Z,1.10
2022-12-18T03:20:36.763Z,1.37
2022-12-18T03:23:15.600Z,1.00
2022-12-18T03:25:44.163Z,0.70
2022-12-18T03:28:21.482Z,0.90
2022-12-18T03:30:49.727Z,1.00
2022-12-18T03:33:20.779Z,0.97
2022-12-18T03:35:48.602Z,0.60
2022-12-18T03:38:16.081Z,0.60
2022-12-18T03:41:01.925Z,0.77
2022-12-18T03:43:29.398Z,0.67
2022-12-18T03:46:02.831Z,0.60
2022-12-18T03:48:34.000Z,0.70
2022-12-18T03:51:03.842Z,0.33
2022-12-18T03:53:52.480Z,0.80
2022-12-18T03:56:20.521Z,0.70
2022-12-18T03:58:48.802Z,0.40
2022-12-18T04:01:17.579Z,0.70
2022-12-18T04:03:46.571Z,0.70
2022-12-18T04:06:14.080Z,0.60
2022-12-18T04:08:42.126Z,0.53
2022-12-18T04:11:09.442Z,0.50
2022-12-18T04:13:38.449Z,0.60
2022-12-18T04:16:06.462Z,0.53
2022-12-18T04:18:34.040Z,0.57
2022-12-18T04:21:01.359Z,0.70
2022-12-18T04:23:29.605Z,0.50
2022-12-18T04:25:57.004Z,0.50
2022-12-18T04:28:24.360Z,0.70
2022-12-18T04:30:51.931Z,0.57
2022-12-18T04:33:19.598Z,0.60
2022-12-18T04:35:47.239Z,0.40
2022-12-18T04:38:14.763Z,0.60
2022-12-18T04:40:42.045Z,0.70
2022-12-18T04:43:10.318Z,0.60
2022-12-18T04:45:38.162Z,0.57
2022-12-18T04:48:05.962Z,0.83
2022-12-18T04:50:33.561Z,0.80
2022-12-18T04:53:01.001Z,0.67
2022-12-18T04:55:28.562Z,0.60
2022-12-18T04:57:55.925Z,0.70
2022-12-18T05:00:23.400Z,0.40
2022-12-18T05:02:50.979Z,0.50
2022-12-18T05:05:18.722Z,0.77
2022-12-18T05:07:46.065Z,0.60
2022-12-18T05:10:13.362Z,0.70
2022-12-18T05:12:59.346Z,0.67
2022-12-18T05:15:32.480Z,0.80
2022-12-18T05:18:00.566Z,0.50
2022-12-18T05:20:28.798Z,0.77
2022-12-18T05:22:56.762Z,0.53
2022-12-18T05:25:24.640Z,0.73
2022-12-18T05:27:51.998Z,0.77
2022-12-18T05:30:19.320Z,0.70
2022-12-18T05:32:46.644Z,0.80
2022-12-18T05:35:14.079Z,0.67
2022-12-18T05:37:43.453Z,0.60
2022-12-18T05:40:11.401Z,0.60
2022-12-18T05:42:39.044Z,0.70
2022-12-18T05:45:06.879Z,0.70
2022-12-18T05:47:34.324Z,0.77
2022-12-18T05:50:01.740Z,0.60
2022-12-18T05:52:29.040Z,0.60
2022-12-18T05:54:56.441Z,0.80
2022-12-18T05:57:23.805Z,0.70
2022-12-18T05:59:51.086Z,0.80
2022-12-18T06:02:18.697Z,0.73
2022-12-18T06:04:46.160Z,0.50
2022-12-18T06:07:13.843Z,0.83
2022-12-18T06:09:41.319Z,0.70
2022-12-18T06:12:08.605Z,0.67
2022-12-18T06:14:36.039Z,0.97
2022-12-18T06:17:03.280Z,0.73
2022-12-18T06:19:30.719Z,1.30
2022-12-18T06:22:00.097Z,0.70
2022-12-18T06:24:27.563Z,0.70
2022-12-18T06:26:55.042Z,1.20
2022-12-18T06:29:22.443Z,1.23
2022-12-18T06:31:49.730Z,0.83
2022-12-18T06:34:17.081Z,1.27
2022-12-18T06:36:44.521Z,1.90
2022-12-18T06:39:11.821Z,1.00
2022-12-18T06:41:39.275Z,1.20
2022-12-18T06:44:07.883Z,1.30
2022-12-18T06:46:35.200Z,1.10
2022-12-18T06:49:02.539Z,1.30
2022-12-18T06:51:30.919Z,1.40
2022-12-18T06:53:58.444Z,1.00
2022-12-18T06:56:25.841Z,1.00
2022-12-18T06:58:53.320Z,1.10
2022-12-18T07:01:20.763Z,1.20
2022-12-18T07:03:48.439Z,1.17
2022-12-18T07:06:17.040Z,1.00
2022-12-18T07:08:44.479Z,1.17
2022-12-18T07:11:11.844Z,1.10
2022-12-18T07:13:39.656Z,1.03
2022-12-18T07:16:15.067Z,1.20
2022-12-18T07:18:44.922Z,2.03
2022-12-18T07:21:13.850Z,1.37
2022-12-18T07:23:41.605Z,1.10
2022-12-18T07:26:10.401Z,1.30
2022-12-18T07:28:41.425Z,1.40
2022-12-18T07:31:10.482Z,1.13
2022-12-18T07:33:40.010Z,1.70
2022-12-18T07:36:08.883Z,1.30
2022-12-18T07:38:36.999Z,1.20
2022-12-18T07:41:06.761Z,1.20
2022-12-18T07:43:34.921Z,1.70
2022-12-18T07:46:02.473Z,1.30
2022-12-18T07:48:30.522Z,1.30
2022-12-18T07:51:05.286Z,1.40
2022-12-18T07:53:33.120Z,1.70
2022-12-18T07:56:26.627Z,1.97
2022-12-18T07:58:52.560Z,1.67
2022-12-18T08:01:19.987Z,1.23
2022-12-18T08:03:48.840Z,1.07
2022-12-18T08:06:19.513Z,1.17
2022-12-18T08:08:50.046Z,1.63
2022-12-18T08:11:17.845Z,2.57
2022-12-18T08:13:45.202Z,1.87
2022-12-18T08:16:12.746Z,1.70
2022-12-18T08:18:40.151Z,1.60
2022-12-18T08:21:10.768Z,1.90
2022-12-18T08:23:42.549Z,2.37
2022-12-18T08:26:10.533Z,1.63
2022-12-18T08:28:37.881Z,1.83
2022-12-18T08:31:05.450Z,1.63
2022-12-18T08:33:33.005Z,1.30
2022-12-18T08:36:01.001Z,1.40
2022-12-18T08:38:28.592Z,1.33
2022-12-18T08:41:02.701Z,1.73
2022-12-18T08:43:49.039Z,2.07
2022-12-18T08:46:16.643Z,1.50
2022-12-18T08:48:44.762Z,1.53
2022-12-18T08:51:12.282Z,1.80
2022-12-18T08:53:40.259Z,1.50
2022-12-18T08:56:08.202Z,1.90
2022-12-18T08:58:35.582Z,1.90
2022-12-18T09:01:03.900Z,1.50
2022-12-18T09:03:31.572Z,1.47
2022-12-18T09:06:02.044Z,1.00
2022-12-18T09:08:29.800Z,1.57
2022-12-18T09:10:57.495Z,1.43
2022-12-18T09:13:25.145Z,1.30
2022-12-18T09:15:53.800Z,1.67
2022-12-18T09:18:22.442Z,1.87
2022-12-18T09:20:51.280Z,1.70
2022-12-18T09:23:18.630Z,1.83
2022-12-18T09:25:46.041Z,1.13
2022-12-18T09:28:15.720Z,2.07
2022-12-18T09:30:44.289Z,1.70
2022-12-18T09:33:12.159Z,3.10
2022-12-18T09:35:40.359Z,2.23
2022-12-18T09:38:09.441Z,2.90
2022-12-18T09:40:38.386Z,2.50
2022-12-18T09:43:07.560Z,1.80
2022-12-18T09:45:44.724Z,2.10
2022-12-18T09:48:21.880Z,2.00
2022-12-18T09:50:50.305Z,1.50
2022-12-18T09:53:23.445Z,1.90
2022-12-18T09:55:51.239Z,1.73
2022-12-18T09:58:27.921Z,1.50
2022-12-18T10:00:55.839Z,1.43
2022-12-18T10:03:23.825Z,1.80
2022-12-18T10:05:51.246Z,1.47
2022-12-18T10:08:30.679Z,1.70
2022-12-18T10:11:00.092Z,1.70
2022-12-18T10:13:37.600Z,1.50
2022-12-18T10:16:14.080Z,1.53
2022-12-18T10:18:51.269Z,1.70
2022-12-18T10:21:20.840Z,1.87
2022-12-18T10:23:55.919Z,2.03
2022-12-18T10:26:23.363Z,1.43
2022-12-18T10:28:51.479Z,3.27
2022-12-18T10:31:21.647Z,3.40
2022-12-18T10:33:52.244Z,4.33
2022-12-18T10:36:19.641Z,4.80
2022-12-18T10:38:47.056Z,5.90
2022-12-18T10:41:22.184Z,6.43
2022-12-18T10:43:49.875Z,4.17
2022-12-18T10:46:22.644Z,2.73
2022-12-18T10:48:50.639Z,2.10
2022-12-18T10:51:34.883Z,1.40
2022-12-18T10:54:22.604Z,1.30
2022-12-18T10:56:50.402Z,1.87
2022-12-18T10:59:18.843Z,1.93
2022-12-18T11:01:48.990Z,1.83
2022-12-18T11:04:36.443Z,1.93
2022-12-18T11:07:07.925Z,1.70
2022-12-18T11:09:36.407Z,1.97
2022-12-18T11:12:07.164Z,1.83
2022-12-18T11:14:47.203Z,1.93
2022-12-18T11:17:25.953Z,2.07
2022-12-18T11:19:55.306Z,2.37
2022-12-18T11:22:28.690Z,2.00
2022-12-18T11:28:03.569Z,1.93
2022-12-18T11:30:32.201Z,1.97
2022-12-18T11:33:02.483Z,3.30
2022-12-18T11:35:32.598Z,2.70
2022-12-18T11:38:06.325Z,1.53
2022-12-18T11:40:41.363Z,1.60
2022-12-18T11:43:12.442Z,1.70
2022-12-18T11:45:45.058Z,1.30
2022-12-18T11:48:26.560Z,1.50
2022-12-18T11:50:56.732Z,1.50
2022-12-18T11:53:25.368Z,1.30
2022-12-18T11:56:01.801Z,1.33
2022-12-18T11:58:35.122Z,1.40
2022-12-18T12:01:22.812Z,1.07
2022-12-18T12:03:50.149Z,1.70
2022-12-18T12:06:23.999Z,1.13
2022-12-18T12:09:09.823Z,1.50
2022-12-18T12:11:44.799Z,1.40
2022-12-18T12:14:21.522Z,1.10
2022-12-18T12:16:49.280Z,1.10
2022-12-18T12:19:29.283Z,1.40
2022-12-18T12:22:11.726Z,1.50
2022-12-18T12:24:39.120Z,2.70
2022-12-18T12:27:09.478Z,2.83
2022-12-18T12:29:39.840Z,1.40
2022-12-18T12:32:16.424Z,1.60
2022-12-18T12:34:46.808Z,1.20
2022-12-18T12:37:27.114Z,1.50
2022-12-18T12:39:56.365Z,1.50
2022-12-18T12:42:51.522Z,1.77
2022-12-18T12:45:22.803Z,1.30
2022-12-18T12:47:51.199Z,1.30
2022-12-18T12:50:20.625Z,1.17
2022-12-18T12:52:49.536Z,1.43
2022-12-18T12:55:24.480Z,1.10
2022-12-18T12:57:55.999Z,1.40
2022-12-18T13:00:25.447Z,3.13
2022-12-18T13:03:02.999Z,2.90
2022-12-18T13:05:33.706Z,1.67
2022-12-18T13:08:03.753Z,1.50
2022-12-18T13:10:38.925Z,1.27
2022-12-18T13:13:10.502Z,1.40
2022-12-18T13:15:41.119Z,1.20
2022-12-18T13:18:11.244Z,1.57
2022-12-18T13:20:42.081Z,1.47
2022-12-18T13:23:21.489Z,1.20
2022-12-18T13:25:49.879Z,1.50
2022-12-18T13:28:18.443Z,1.53
2022-12-18T13:31:06.039Z,1.80
2022-12-18T13:33:34.120Z,1.43
2022-12-18T13:36:11.696Z,1.50
2022-12-18T13:38:40.801Z,3.87
2022-12-18T13:41:17.363Z,1.80
2022-12-18T13:43:50.363Z,1.67
2022-12-18T13:46:30.599Z,1.80
2022-12-18T13:49:00.199Z,2.73
2022-12-18T13:51:31.923Z,2.27
2022-12-18T13:54:00.895Z,2.07
2022-12-18T13:56:33.802Z,1.87
2022-12-18T13:59:08.829Z,1.80
2022-12-18T14:01:36.719Z,1.43
2022-12-18T14:04:11.120Z,1.17
2022-12-18T14:06:38.723Z,1.37
2022-12-18T14:09:06.760Z,1.40
2022-12-18T14:11:37.001Z,1.47
2022-12-18T14:14:08.514Z,1.60
2022-12-18T14:16:36.200Z,2.53
2022-12-18T14:19:14.885Z,2.80
2022-12-18T14:21:47.085Z,1.80
2022-12-18T14:24:22.201Z,1.30
2022-12-18T14:26:51.091Z,1.40
2022-12-18T14:29:32.296Z,2.20
2022-12-18T14:32:17.924Z,1.23
2022-12-18T14:34:50.282Z,1.67
2022-12-18T14:37:20.125Z,1.50
2022-12-18T14:39:58.180Z,4.40
2022-12-18T14:42:29.388Z,4.00
2022-12-18T14:45:17.160Z,2.00
2022-12-18T14:47:45.520Z,1.67
2022-12-18T14:50:15.628Z,1.60
2022-12-18T14:52:43.042Z,1.43
2022-12-18T14:55:20.734Z,2.40
2022-12-18T14:57:51.826Z,3.00
2022-12-18T15:00:20.521Z,2.53
2022-12-18T15:02:53.494Z,2.03
2022-12-18T15:05:23.241Z,1.30
2022-12-18T15:07:51.961Z,1.80
2022-12-18T15:10:21.960Z,2.00
2022-12-18T15:12:58.439Z,1.73
2022-12-18T15:15:35.078Z,1.10
2022-12-18T15:18:03.402Z,1.33
2022-12-18T15:20:33.521Z,2.10
2022-12-18T15:23:01.013Z,2.10
2022-12-18T15:25:28.662Z,2.20
2022-12-18T15:27:56.163Z,2.10
2022-12-18T15:30:24.720Z,1.67
2022-12-18T15:32:52.918Z,1.50
2022-12-18T15:35:24.327Z,1.53
2022-12-18T15:37:52.560Z,1.50
2022-12-18T15:40:21.640Z,1.50
2022-12-18T15:43:08.283Z,2.00
2022-12-18T15:45:35.804Z,1.40
2022-12-18T15:48:26.323Z,1.57
2022-12-18T15:50:54.800Z,1.50
2022-12-18T15:53:22.279Z,2.07
2022-12-18T15:56:08.201Z,1.97
2022-12-18T15:58:36.044Z,1.60
2022-12-18T16:01:03.669Z,2.10
2022-12-18T16:03:31.492Z,2.10
2022-12-18T16:06:01.478Z,1.67
2022-12-18T16:08:31.002Z,2.00
2022-12-18T16:10:58.881Z,1.50
2022-12-18T16:13:26.278Z,1.83
2022-12-18T16:15:53.773Z,2.10
2022-12-18T16:18:21.238Z,1.80
2022-12-18T16:20:48.643Z,2.77
2022-12-18T16:23:16.121Z,3.10
2022-12-18T16:25:43.442Z,2.17
2022-12-18T16:28:10.761Z,2.40
2022-12-18T16:30:38.752Z,2.00
2022-12-18T16:33:07.498Z,2.43
2022-12-18T16:35:38.139Z,2.87
2022-12-18T16:38:05.639Z,3.60
2022-12-18T16:40:34.044Z,4.80
2022-12-18T16:43:01.446Z,3.10
2022-12-18T16:45:34.199Z,1.93
2022-12-18T16:48:01.802Z,2.00
2022-12-18T16:50:29.132Z,1.90
2022-12-18T16:52:56.479Z,2.63
2022-12-18T16:55:23.761Z,3.23
2022-12-18T16:57:51.160Z,3.63
2022-12-18T17:00:18.687Z,3.10
2022-12-18T17:02:47.013Z,2.87
2022-12-18T17:05:14.964Z,2.80
2022-12-18T17:07:42.319Z,3.23
2022-12-18T17:10:12.598Z,2.70
2022-12-18T17:12:39.882Z,2.13
2022-12-18T17:15:07.679Z,2.33
2022-12-18T17:17:36.662Z,2.00
2022-12-18T17:20:04.001Z,2.03
2022-12-18T17:22:31.398Z,2.43
2022-12-18T17:24:58.841Z,1.90
2022-12-18T17:27:26.120Z,1.30
2022-12-18T17:29:53.639Z,1.87
2022-12-18T17:32:20.920Z,1.77
2022-12-18T17:34:48.369Z,1.50
2022-12-18T17:37:16.241Z,5.50
2022-12-18T17:39:46.761Z,2.40
2022-12-18T17:42:17.120Z,1.80
2022-12-18T17:44:45.038Z,1.60
2022-12-18T17:47:13.609Z,1.57
2022-12-18T17:49:41.320Z,2.20
2022-12-18T17:52:08.958Z,1.50
2022-12-18T17:54:39.740Z,1.43
2022-12-18T17:57:07.291Z,1.43
2022-12-18T17:59:34.882Z,1.93
2022-12-18T18:02:02.479Z,1.87
2022-12-18T18:04:30.359Z,1.70
2022-12-18T18:06:57.998Z,1.17
2022-12-18T18:09:25.282Z,1.30
2022-12-18T18:12:12.758Z,1.70
2022-12-18T18:14:40.441Z,1.93
2022-12-18T18:17:08.002Z,2.20
2022-12-18T18:19:35.920Z,1.73
2022-12-18T18:22:03.761Z,1.97
2022-12-18T18:24:31.801Z,1.40
2022-12-18T18:27:00.303Z,1.60
2022-12-18T18:29:30.550Z,1.50
2022-12-18T18:31:58.240Z,1.60
2022-12-18T18:34:26.883Z,1.43
2022-12-18T18:36:54.242Z,1.60
2022-12-18T18:39:21.881Z,1.80
2022-12-18T18:41:49.294Z,1.53
2022-12-18T18:44:17.202Z,2.37
2022-12-18T18:46:44.844Z,1.57
2022-12-18T18:49:13.903Z,1.30
2022-12-18T18:51:43.722Z,1.43
2022-12-18T18:54:11.600Z,1.70
2022-12-18T18:57:18.903Z,1.40
2022-12-18T18:59:31.170Z,1.30
2022-12-18T19:02:00.239Z,1.37
2022-12-18T19:04:32.084Z,1.30
2022-12-18T19:06:59.482Z,1.80
2022-12-18T19:09:26.902Z,1.50
2022-12-18T19:12:14.244Z,1.30
2022-12-18T19:14:41.642Z,1.63
2022-12-18T19:17:09.481Z,1.50
2022-12-18T19:19:36.878Z,1.40
2022-12-18T19:22:04.480Z,1.73
2022-12-18T19:24:32.085Z,1.53
2022-12-18T19:26:59.441Z,1.93
2022-12-18T19:29:26.842Z,1.77
2022-12-18T19:31:54.430Z,3.00
2022-12-18T19:34:21.880Z,2.00
2022-12-18T19:36:49.316Z,1.63
2022-12-18T19:39:18.039Z,2.20
2022-12-18T19:41:47.243Z,1.90
2022-12-18T19:44:15.818Z,1.77
2022-12-18T19:46:43.643Z,2.03
2022-12-18T19:49:11.998Z,2.40
2022-12-18T19:51:44.909Z,1.83
2022-12-18T19:54:16.712Z,1.93
2022-12-18T19:56:44.844Z,2.53
2022-12-18T19:59:12.210Z,1.70
2022-12-18T20:01:39.538Z,1.40
2022-12-18T20:04:07.155Z,1.90
2022-12-18T20:06:36.879Z,1.80
2022-12-18T20:09:06.246Z,2.03
2022-12-18T20:11:36.391Z,1.60
2022-12-18T20:14:08.766Z,4.83
2022-12-18T20:16:36.263Z,4.70
2022-12-18T20:19:04.441Z,2.80
2022-12-18T20:21:32.323Z,1.80
2022-12-18T20:24:01.288Z,1.67
2022-12-18T20:26:28.804Z,1.90
2022-12-18T20:28:56.734Z,2.20
2022-12-18T20:31:24.501Z,1.90
2022-12-18T20:33:53.456Z,1.57
2022-12-18T20:36:23.403Z,1.60
2022-12-18T20:38:59.165Z,1.70
2022-12-18T20:41:35.045Z,1.37
2022-12-18T20:44:07.475Z,1.30
2022-12-18T20:46:50.010Z,1.20
2022-12-18T20:49:17.441Z,1.30
2022-12-18T20:51:44.841Z,1.63
2022-12-18T20:54:12.211Z,1.90
2022-12-18T20:56:39.602Z,1.37
2022-12-18T20:59:07.403Z,1.63
2022-12-18T21:01:34.943Z,1.93
2022-12-18T21:04:03.879Z,1.63
2022-12-18T21:06:31.334Z,1.40
2022-12-18T21:08:59.041Z,1.40
2022-12-18T21:11:49.526Z,1.20
2022-12-18T21:14:24.280Z,1.93
2022-12-18T21:16:52.084Z,2.40
2022-12-18T21:19:21.202Z,1.47
2022-12-18T21:21:48.841Z,1.47
2022-12-18T21:24:16.880Z,1.90
2022-12-18T21:26:46.120Z,1.30
2022-12-18T21:29:18.324Z,1.93
2022-12-18T21:31:45.925Z,1.30
2022-12-18T21:34:15.961Z,1.57
2022-12-18T21:36:43.318Z,1.50
2022-12-18T21:39:10.843Z,2.20
2022-12-18T21:41:57.085Z,1.20
2022-12-18T21:44:24.682Z,1.60
2022-12-18T21:46:56.931Z,1.07
2022-12-18T21:49:29.159Z,1.50
2022-12-18T21:51:57.960Z,1.10
2022-12-18T21:54:26.019Z,2.17
2022-12-18T21:56:57.281Z,1.47
2022-12-18T21:59:26.122Z,1.33
2022-12-18T22:01:54.208Z,1.10
2022-12-18T22:04:22.278Z,1.33
2022-12-18T22:06:50.320Z,1.20
2022-12-18T22:09:18.764Z,14.33
2022-12-18T22:11:46.525Z,16.13
2022-12-18T22:14:15.087Z,2.90
2022-12-18T22:16:43.363Z,1.30
2022-12-18T22:19:11.801Z,0.90
2022-12-18T22:21:41.125Z,1.20
2022-12-18T22:24:09.598Z,1.20
2022-12-18T22:26:40.082Z,1.20
2022-12-18T22:29:26.840Z,1.13
2022-12-18T22:31:54.161Z,1.20
2022-12-18T22:34:23.478Z,1.20
2022-12-18T22:36:51.563Z,0.90
2022-12-18T22:39:20.843Z,1.10
2022-12-18T22:41:49.240Z,1.37
2022-12-18T22:44:18.027Z,0.93
2022-12-18T22:47:05.965Z,1.20
2022-12-18T22:49:35.666Z,1.20
2022-12-18T22:52:09.442Z,0.90
2022-12-18T22:54:36.841Z,1.03
2022-12-18T22:57:04.920Z,1.00
2022-12-18T22:59:32.320Z,1.33
2022-12-18T23:01:59.771Z,0.93
2022-12-18T23:04:36.203Z,0.90
2022-12-18T23:07:07.244Z,0.93
2022-12-18T23:09:34.842Z,0.80
2022-12-18T23:12:02.161Z,1.30
2022-12-18T23:14:30.043Z,1.10
2022-12-18T23:16:57.321Z,1.23
2022-12-18T23:19:24.921Z,0.90
2022-12-18T23:21:52.721Z,1.10
2022-12-18T23:24:22.210Z,1.10
2022-12-18T23:26:49.562Z,0.83
2022-12-18T23:29:16.882Z,1.30
2022-12-18T23:31:44.302Z,1.40
2022-12-18T23:34:13.600Z,1.00
2022-12-18T23:36:45.547Z,1.40
2022-12-18T23:39:28.679Z,1.37
2022-12-18T23:42:00.867Z,1.27
2022-12-18T23:44:28.774Z,1.33
2022-12-18T23:46:56.375Z,1.70
2022-12-18T23:49:24.000Z,1.23
2022-12-18T23:51:51.723Z,1.77
2022-12-18T23:54:22.343Z,1.07
2022-12-18T23:56:58.843Z,1.20
2022-12-18T23:59:29.002Z,1.30
